Time;durP1;ratioP1;P1;durP2;ratioP2;P2;SDS_P1;SDS_P2;PMS_P1;PMS_P2;Temp;Humidity;BMP_temperature;BMP_pressure;BME280_temperature;BME280_humidity;BME280_pressure;Samples;Min_cycle;Max_cycle;Signal;HPM_P1;HPM_P2
2023/01/24 00:02:09;;;;;;;34.45;17.13;;;;;;;;;;5027059;28;20034;-68
2023/01/24 00:04:35;;;;;;;37.65;17.55;;;;;;;;;;5025905;28;20411;-68
2023/01/24 00:07:01;;;;;;;32.80;16.30;;;;;;;;;;5020649;28;20239;-68
2023/01/24 00:09:27;;;;;;;37.83;17.75;;;;;;;;;;5015984;28;20443;-68
2023/01/24 00:11:53;;;;;;;33.60;17.27;;;;;;;;;;5004869;28;20041;-68
2023/01/24 00:14:19;;;;;;;33.90;17.17;;;;;;;;;;4998248;28;20408;-68
2023/01/24 00:16:45;;;;;;;30.42;16.40;;;;;;;;;;5019765;28;20037;-68
2023/01/24 00:19:11;;;;;;;35.20;18.27;;;;;;;;;;5025692;28;20034;-68
2023/01/24 00:21:37;;;;;;;34.65;17.83;;;;;;;;;;5024887;28;20771;-68
2023/01/24 00:24:03;;;;;;;36.15;17.73;;;;;;;;;;5024442;28;20037;-67
2023/01/24 00:26:29;;;;;;;34.47;16.33;;;;;;;;;;5020887;28;20041;-68
2023/01/24 00:28:55;;;;;;;32.08;16.60;;;;;;;;;;5030946;28;20045;-68
2023/01/24 00:31:21;;;;;;;33.95;16.77;;;;;;;;;;5027347;28;20388;-68
2023/01/24 00:33:47;;;;;;;34.53;17.13;;;;;;;;;;5029189;28;20072;-68
2023/01/24 00:36:13;;;;;;;36.72;18.48;;;;;;;;;;5018479;28;20052;-68
2023/01/24 00:38:39;;;;;;;35.22;18.08;;;;;;;;;;5029436;28;20029;-68
2023/01/24 00:41:05;;;;;;;34.47;17.38;;;;;;;;;;5028968;28;20372;-68
2023/01/24 00:43:31;;;;;;;37.17;18.15;;;;;;;;;;5030534;28;20091;-68
2023/01/24 00:45:57;;;;;;;35.17;18.42;;;;;;;;;;5025176;28;20061;-68
2023/01/24 00:48:23;;;;;;;35.55;16.40;;;;;;;;;;5034550;28;20034;-68
2023/01/24 00:50:49;;;;;;;40.15;18.05;;;;;;;;;;5024069;28;20053;-68
2023/01/24 00:53:15;;;;;;;37.30;17.58;;;;;;;;;;5027750;28;20033;-68
2023/01/24 00:55:42;;;;;;;35.78;17.65;;;;;;;;;;5029462;28;20402;-68
2023/01/24 00:58:08;;;;;;;34.10;16.80;;;;;;;;;;5033207;28;20044;-68
2023/01/24 01:00:36;;;;;;;33.28;16.00;;;;;;;;;;5024689;28;20037;-68
2023/01/24 01:03:02;;;;;;;34.00;16.77;;;;;;;;;;5031541;28;20037;-68
2023/01/24 01:05:28;;;;;;;33.20;16.92;;;;;;;;;;5026586;28;20038;-68
2023/01/24 01:07:54;;;;;;;36.42;17.95;;;;;;;;;;5021076;28;20046;-68
2023/01/24 01:10:20;;;;;;;39.05;18.40;;;;;;;;;;5027253;28;20341;-68
2023/01/24 01:12:46;;;;;;;35.00;18.08;;;;;;;;;;5028358;28;20046;-68
2023/01/24 01:15:12;;;;;;;34.25;18.05;;;;;;;;;;5032868;28;20499;-68
2023/01/24 01:17:38;;;;;;;29.30;15.48;;;;;;;;;;5030608;28;20045;-68
2023/01/24 01:20:05;;;;;;;33.90;17.77;;;;;;;;;;5024678;28;20459;-68
2023/01/24 01:22:31;;;;;;;38.78;18.15;;;;;;;;;;5032501;28;20037;-68
2023/01/24 01:24:57;;;;;;;35.63;16.90;;;;;;;;;;5031451;28;20569;-68
2023/01/24 01:27:23;;;;;;;37.10;17.20;;;;;;;;;;5021743;28;20041;-68
2023/01/24 01:29:49;;;;;;;36.22;17.38;;;;;;;;;;5031064;28;20550;-68
2023/01/24 01:32:15;;;;;;;33.13;16.45;;;;;;;;;;5033123;28;20499;-68
2023/01/24 01:34:41;;;;;;;33.53;17.17;;;;;;;;;;5002626;28;20175;-68
2023/01/24 01:37:07;;;;;;;37.60;17.77;;;;;;;;;;5028592;28;20045;-68
2023/01/24 01:39:33;;;;;;;33.85;17.80;;;;;;;;;;5020222;28;20048;-68
2023/01/24 01:41:59;;;;;;;35.50;17.42;;;;;;;;;;5021335;28;20042;-68
2023/01/24 01:44:38;;;;;;;28.58;16.05;;;;;;;;;;5017200;28;20041;-68
2023/01/24 01:47:14;;;;;;;36.63;17.23;;;;;;;;;;5031787;28;20052;-68
2023/01/24 01:49:43;;;;;;;28.10;15.07;;;;;;;;;;5025204;28;20049;-68
2023/01/24 01:52:09;;;;;;;29.02;15.50;;;;;;;;;;5030865;28;20072;-68
2023/01/24 01:54:37;;;;;;;26.88;14.73;;;;;;;;;;5028718;28;20087;-68
2023/01/24 01:57:05;;;;;;;23.23;13.15;;;;;;;;;;5024192;28;20068;-68
2023/01/24 01:59:35;;;;;;;22.92;11.90;;;;;;;;;;5024186;28;20030;-68
2023/01/24 02:02:01;;;;;;;19.45;11.95;;;;;;;;;;5026403;28;20034;-68
2023/01/24 02:04:30;;;;;;;20.10;11.15;;;;;;;;;;5027381;28;20040;-68
2023/01/24 02:07:00;;;;;;;18.80;11.52;;;;;;;;;;5021383;28;20076;-68
2023/01/24 02:09:28;;;;;;;22.77;12.13;;;;;;;;;;5027514;28;20030;-68
2023/01/24 02:11:55;;;;;;;20.50;11.55;;;;;;;;;;5023386;28;20041;-68
2023/01/24 02:17:07;;;;;;;22.30;12.45;;;;;;;;;;5019787;28;20049;-68
2023/01/24 02:19:39;;;;;;;23.75;12.55;;;;;;;;;;5020307;28;20038;-68
2023/01/24 02:22:31;;;;;;;26.80;14.07;;;;;;;;;;5024158;28;20550;-67
2023/01/24 02:25:27;;;;;;;26.50;13.63;;;;;;;;;;5027448;28;20061;-68
2023/01/24 02:27:53;;;;;;;25.25;12.98;;;;;;;;;;5014223;28;20072;-68
2023/01/24 02:30:19;;;;;;;25.83;13.77;;;;;;;;;;5026207;28;20065;-68
2023/01/24 02:32:45;;;;;;;24.52;13.93;;;;;;;;;;5021293;28;20065;-67
2023/01/24 02:35:24;;;;;;;25.52;13.65;;;;;;;;;;5029294;28;20068;-67
2023/01/24 02:37:50;;;;;;;23.45;12.43;;;;;;;;;;5023523;28;20484;-68
2023/01/24 02:40:18;;;;;;;26.90;14.40;;;;;;;;;;5020425;28;20037;-68
2023/01/24 02:42:44;;;;;;;26.40;13.70;;;;;;;;;;5027388;28;20084;-68
2023/01/24 02:45:12;;;;;;;25.48;13.15;;;;;;;;;;5032230;28;20695;-68
2023/01/24 02:47:42;;;;;;;27.63;14.45;;;;;;;;;;5029073;28;20452;-68
2023/01/24 02:50:09;;;;;;;25.05;14.15;;;;;;;;;;5027029;28;20496;-68
2023/01/24 02:55:20;;;;;;;25.65;13.85;;;;;;;;;;5031867;28;20111;-68
2023/01/24 03:00:31;;;;;;;25.38;13.25;;;;;;;;;;5023655;28;20044;-68
2023/01/24 03:02:57;;;;;;;25.77;13.95;;;;;;;;;;5027975;28;20113;-68
2023/01/24 03:05:23;;;;;;;25.70;12.15;;;;;;;;;;5027268;28;20120;-68
2023/01/24 03:07:49;;;;;;;19.48;12.30;;;;;;;;;;5031355;28;20045;-68
2023/01/24 03:10:16;;;;;;;22.63;12.07;;;;;;;;;;5063779;22;20055;-63
2023/01/24 03:34:50;;;;;;;20.20;11.02;;;;;;;;;;5054471;28;20083;-63
2023/01/24 03:39:53;;;;;;;19.63;10.98;;;;;;;;;;5044084;28;20512;-63
2023/01/24 03:40:04;;;;;;;18.02;10.32;;;;;;;;;;5064136;28;20045;-64
2023/01/24 03:42:30;;;;;;;17.45;10.32;;;;;;;;;;5042832;28;20037;-63
2023/01/24 03:44:56;;;;;;;18.40;9.30;;;;;;;;;;5035996;28;20055;-63
2023/01/24 03:47:22;;;;;;;19.67;10.60;;;;;;;;;;5049729;28;20033;-63
2023/01/24 03:52:33;;;;;;;20.23;10.80;;;;;;;;;;5049760;28;20059;-64
2023/01/24 03:55:00;;;;;;;21.35;11.07;;;;;;;;;;5060955;28;20050;-63
2023/01/24 03:57:26;;;;;;;17.38;10.25;;;;;;;;;;5059746;28;20037;-63
2023/01/24 03:59:52;;;;;;;20.13;11.10;;;;;;;;;;5031590;28;20045;-64
2023/01/24 04:02:18;;;;;;;19.67;10.73;;;;;;;;;;5051779;28;20033;-63
2023/01/24 04:07:30;;;;;;;18.45;10.35;;;;;;;;;;5047787;28;20131;-63
2023/01/24 04:09:57;;;;;;;19.05;10.50;;;;;;;;;;5067732;28;20102;-63
2023/01/24 04:12:24;;;;;;;19.75;10.38;;;;;;;;;;5053110;28;20091;-63
2023/01/24 04:14:50;;;;;;;18.35;9.73;;;;;;;;;;5049381;28;20052;-63
2023/01/24 04:17:16;;;;;;;17.38;9.98;;;;;;;;;;5051454;28;20497;-63
2023/01/24 04:19:42;;;;;;;17.38;10.23;;;;;;;;;;5059212;28;20045;-63
2023/01/24 04:22:09;;;;;;;18.95;9.15;;;;;;;;;;5035739;28;20052;-63
2023/01/24 04:24:34;;;;;;;17.42;10.10;;;;;;;;;;5052897;28;20033;-63
2023/01/24 04:27:00;;;;;;;16.60;9.32;;;;;;;;;;5055303;28;20037;-63
2023/01/24 04:29:26;;;;;;;17.65;9.40;;;;;;;;;;5051964;28;20414;-63
2023/01/24 04:31:52;;;;;;;15.65;8.93;;;;;;;;;;5056365;28;20040;-63
2023/01/24 04:34:18;;;;;;;16.17;8.95;;;;;;;;;;5052522;28;20091;-63
2023/01/24 04:36:44;;;;;;;16.73;8.77;;;;;;;;;;5045066;28;20054;-63
2023/01/24 04:39:10;;;;;;;17.63;9.48;;;;;;;;;;5071393;28;20119;-63
2023/01/24 04:41:36;;;;;;;15.70;9.15;;;;;;;;;;5051620;28;20108;-63
2023/01/24 04:44:02;;;;;;;16.15;8.57;;;;;;;;;;5064115;28;20078;-63
2023/01/24 04:46:29;;;;;;;17.48;8.93;;;;;;;;;;5051222;28;20037;-63
2023/01/24 04:48:55;;;;;;;16.35;9.20;;;;;;;;;;5042286;28;20064;-63
2023/01/24 04:51:21;;;;;;;16.20;9.05;;;;;;;;;;5035572;28;20103;-63
2023/01/24 04:53:47;;;;;;;15.70;8.93;;;;;;;;;;5067679;28;20036;-63
2023/01/24 04:56:13;;;;;;;14.38;9.10;;;;;;;;;;5054950;28;20037;-63
2023/01/24 04:58:39;;;;;;;13.90;8.45;;;;;;;;;;5058357;28;20036;-63
2023/01/24 05:01:05;;;;;;;13.88;7.47;;;;;;;;;;5061324;28;20040;-63
2023/01/24 05:03:31;;;;;;;15.52;7.72;;;;;;;;;;5050440;28;20041;-63
2023/01/24 05:05:57;;;;;;;14.00;8.13;;;;;;;;;;5032386;28;20051;-63
2023/01/24 05:08:23;;;;;;;16.42;9.88;;;;;;;;;;5060185;28;20652;-63
2023/01/24 05:10:49;;;;;;;16.92;8.90;;;;;;;;;;5049480;28;20052;-63
2023/01/24 05:13:15;;;;;;;15.45;8.63;;;;;;;;;;5060164;28;20124;-63
2023/01/24 05:15:48;;;;;;;13.57;8.30;;;;;;;;;;5065770;28;20041;-64
2023/01/24 05:18:14;;;;;;;17.60;9.38;;;;;;;;;;5054802;28;20080;-63
2023/01/24 05:20:40;;;;;;;12.52;8.18;;;;;;;;;;5064610;28;20079;-64
2023/01/24 05:23:05;;;;;;;15.98;8.23;;;;;;;;;;5049505;28;20402;-63
2023/01/24 05:25:31;;;;;;;16.20;8.93;;;;;;;;;;5024188;28;20095;-63
2023/01/24 05:27:57;;;;;;;15.38;8.73;;;;;;;;;;5047672;28;20049;-63
2023/01/24 05:30:23;;;;;;;14.25;8.35;;;;;;;;;;5049361;28;20148;-63
2023/01/24 05:32:49;;;;;;;15.82;8.80;;;;;;;;;;5059811;28;20036;-64
2023/01/24 05:35:15;;;;;;;14.95;7.93;;;;;;;;;;5049638;28;20094;-63
2023/01/24 05:37:41;;;;;;;14.73;8.57;;;;;;;;;;5045584;28;20036;-63
2023/01/24 05:40:08;;;;;;;15.05;8.82;;;;;;;;;;5043341;28;20039;-63
2023/01/24 05:42:34;;;;;;;15.77;9.07;;;;;;;;;;5044914;28;20648;-63
2023/01/24 05:45:00;;;;;;;15.57;8.95;;;;;;;;;;5062068;28;20033;-63
2023/01/24 05:47:26;;;;;;;15.98;9.07;;;;;;;;;;5051881;28;20048;-63
2023/01/24 05:49:52;;;;;;;14.25;8.73;;;;;;;;;;5053164;28;20044;-63
2023/01/24 05:52:21;;;;;;;16.83;9.15;;;;;;;;;;5043770;28;20049;-63
2023/01/24 05:54:51;;;;;;;17.83;8.75;;;;;;;;;;5052358;28;20119;-63
2023/01/24 05:57:17;;;;;;;15.75;8.20;;;;;;;;;;5066615;28;20129;-63
2023/01/24 05:59:43;;;;;;;20.15;9.45;;;;;;;;;;5072863;28;20040;-63
2023/01/24 06:02:09;;;;;;;16.30;9.57;;;;;;;;;;5048172;28;20029;-63
2023/01/24 06:04:35;;;;;;;17.15;9.30;;;;;;;;;;5057093;28;20040;-63
2023/01/24 06:07:01;;;;;;;17.60;9.88;;;;;;;;;;5072420;28;20051;-63
2023/01/24 06:09:28;;;;;;;16.20;9.35;;;;;;;;;;5069540;28;20044;-63
2023/01/24 06:11:54;;;;;;;17.42;9.98;;;;;;;;;;5042117;28;20499;-63
2023/01/24 06:14:20;;;;;;;16.90;9.43;;;;;;;;;;5031191;28;20052;-63
2023/01/24 06:16:47;;;;;;;16.95;9.55;;;;;;;;;;5021105;28;20131;-63
2023/01/24 06:19:14;;;;;;;15.70;9.30;;;;;;;;;;5037111;28;20041;-63
2023/01/24 06:21:46;;;;;;;14.40;8.25;;;;;;;;;;5023264;28;20174;-63
2023/01/24 06:24:22;;;;;;;16.92;9.82;;;;;;;;;;5037641;28;20033;-63
2023/01/24 06:26:51;;;;;;;17.38;9.60;;;;;;;;;;5029278;28;20056;-63
2023/01/24 06:29:18;;;;;;;16.40;9.43;;;;;;;;;;5055846;28;20495;-63
2023/01/24 06:31:50;;;;;;;16.58;10.07;;;;;;;;;;5046163;28;20049;-63
2023/01/24 06:34:16;;;;;;;17.55;9.52;;;;;;;;;;5060210;28;20445;-63
2023/01/24 06:36:52;;;;;;;17.77;10.30;;;;;;;;;;5069057;28;20041;-63
2023/01/24 06:39:18;;;;;;;18.17;9.80;;;;;;;;;;5058955;28;20525;-63
2023/01/24 06:41:44;;;;;;;16.85;10.00;;;;;;;;;;5051933;28;20068;-63
2023/01/24 06:44:10;;;;;;;16.55;9.70;;;;;;;;;;5046609;28;20048;-63
2023/01/24 06:46:36;;;;;;;16.98;9.50;;;;;;;;;;5055379;28;20164;-63
2023/01/24 06:49:02;;;;;;;17.33;9.40;;;;;;;;;;5054629;28;20045;-63
2023/01/24 06:51:28;;;;;;;17.58;9.73;;;;;;;;;;5052339;28;20052;-63
2023/01/24 06:53:54;;;;;;;17.05;10.15;;;;;;;;;;5043614;28;20045;-63
2023/01/24 06:56:20;;;;;;;17.33;10.27;;;;;;;;;;5050190;28;20040;-63
2023/01/24 06:58:47;;;;;;;17.77;10.50;;;;;;;;;;5050125;28;20060;-63
2023/01/24 07:01:13;;;;;;;17.92;9.32;;;;;;;;;;5051386;28;20095;-63
2023/01/24 07:03:39;;;;;;;17.27;9.63;;;;;;;;;;5032690;28;20127;-63
2023/01/24 07:06:05;;;;;;;18.75;10.05;;;;;;;;;;5041079;28;20044;-62
2023/01/24 07:08:31;;;;;;;20.08;10.45;;;;;;;;;;5050903;28;20052;-62
2023/01/24 07:10:58;;;;;;;15.85;8.90;;;;;;;;;;5049641;28;20711;-62
2023/01/24 07:13:24;;;;;;;19.25;10.32;;;;;;;;;;5061791;28;20041;-62
2023/01/24 07:15:50;;;;;;;14.52;9.43;;;;;;;;;;5054860;28;20040;-62
2023/01/24 07:18:17;;;;;;;17.48;11.60;;;;;;;;;;5034233;28;20041;-62
2023/01/24 07:20:43;;;;;;;16.75;9.95;;;;;;;;;;5042191;28;20036;-62
2023/01/24 07:23:32;;;;;;;15.10;8.85;;;;;;;;;;5043492;28;20037;-61
2023/01/24 07:25:58;;;;;;;17.20;10.45;;;;;;;;;;5050060;28;20434;-63
2023/01/24 07:28:25;;;;;;;17.20;10.30;;;;;;;;;;5046928;28;20047;-63
2023/01/24 07:30:52;;;;;;;17.48;10.70;;;;;;;;;;5048118;28;20133;-64
2023/01/24 07:33:18;;;;;;;20.88;11.32;;;;;;;;;;5051675;28;20049;-63
2023/01/24 07:35:44;;;;;;;18.83;10.98;;;;;;;;;;5062718;28;20036;-63
2023/01/24 07:38:13;;;;;;;18.85;11.07;;;;;;;;;;5043308;28;20043;-63
2023/01/24 07:40:39;;;;;;;18.38;10.70;;;;;;;;;;5071296;28;20091;-62
2023/01/24 07:43:05;;;;;;;18.63;11.18;;;;;;;;;;5040866;28;20047;-62
2023/01/24 07:45:34;;;;;;;16.52;9.80;;;;;;;;;;5024225;28;20048;-63
2023/01/24 07:48:00;;;;;;;17.23;10.10;;;;;;;;;;5047237;28;20565;-63
2023/01/24 07:50:29;;;;;;;16.38;10.40;;;;;;;;;;5063699;28;20044;-63
2023/01/24 07:52:55;;;;;;;17.58;10.75;;;;;;;;;;5075052;28;20057;-63
2023/01/24 07:55:22;;;;;;;19.08;10.75;;;;;;;;;;5057387;28;20037;-63
2023/01/24 07:57:48;;;;;;;16.33;9.90;;;;;;;;;;5052997;28;20059;-63
2023/01/24 08:00:14;;;;;;;20.35;10.77;;;;;;;;;;5034692;28;20043;-63
2023/01/24 08:02:41;;;;;;;18.90;9.75;;;;;;;;;;5036867;28;20029;-63
2023/01/24 08:05:07;;;;;;;18.10;10.15;;;;;;;;;;5058366;28;20490;-63
2023/01/24 08:07:33;;;;;;;17.65;10.02;;;;;;;;;;5064546;28;20032;-63
2023/01/24 08:09:59;;;;;;;18.52;10.32;;;;;;;;;;5045111;28;20394;-62
2023/01/24 08:12:25;;;;;;;17.17;10.13;;;;;;;;;;5036717;28;20037;-63
2023/01/24 08:14:51;;;;;;;20.63;11.70;;;;;;;;;;5055358;28;20033;-63
2023/01/24 08:17:17;;;;;;;17.15;10.18;;;;;;;;;;5068909;28;20072;-63
2023/01/24 08:19:43;;;;;;;21.23;10.35;;;;;;;;;;5062777;28;20139;-63
2023/01/24 08:22:09;;;;;;;16.75;10.77;;;;;;;;;;5063747;28;20457;-63
2023/01/24 08:24:35;;;;;;;18.42;11.13;;;;;;;;;;5057792;28;20065;-63
2023/01/24 08:27:01;;;;;;;20.98;11.77;;;;;;;;;;5064770;28;20068;-63
2023/01/24 08:29:27;;;;;;;17.23;10.68;;;;;;;;;;5068106;28;20394;-63
2023/01/24 08:31:53;;;;;;;18.85;11.43;;;;;;;;;;5053366;28;20041;-63
2023/01/24 08:34:19;;;;;;;18.98;11.18;;;;;;;;;;5064163;28;20502;-63
2023/01/24 08:36:45;;;;;;;16.95;10.13;;;;;;;;;;5070012;28;20040;-62
2023/01/24 08:39:11;;;;;;;21.08;11.95;;;;;;;;;;5053664;28;20033;-63
2023/01/24 08:41:37;;;;;;;19.35;11.60;;;;;;;;;;5070579;28;20490;-63
2023/01/24 08:44:04;;;;;;;19.00;10.70;;;;;;;;;;5048166;28;20051;-63
2023/01/24 08:46:31;;;;;;;18.17;11.23;;;;;;;;;;5073848;28;20032;-63
2023/01/24 08:48:57;;;;;;;17.83;11.27;;;;;;;;;;5073535;28;20044;-63
2023/01/24 08:51:23;;;;;;;19.67;11.55;;;;;;;;;;5049532;28;20505;-63
2023/01/24 08:53:49;;;;;;;16.60;10.60;;;;;;;;;;5054750;28;20080;-63
2023/01/24 08:56:15;;;;;;;19.42;11.80;;;;;;;;;;5062586;28;20073;-63
2023/01/24 08:58:41;;;;;;;19.92;12.55;;;;;;;;;;5063237;28;20057;-63
2023/01/24 09:01:08;;;;;;;17.30;11.70;;;;;;;;;;5064781;28;20036;-63
2023/01/24 09:03:34;;;;;;;20.60;12.38;;;;;;;;;;5054860;28;20115;-63
2023/01/24 09:06:00;;;;;;;19.65;12.20;;;;;;;;;;5069464;28;20120;-63
2023/01/24 09:08:26;;;;;;;19.77;11.30;;;;;;;;;;5056166;28;20067;-62
2023/01/24 09:10:53;;;;;;;21.35;12.32;;;;;;;;;;5088638;22;20064;-67
2023/01/24 09:13:19;;;;;;;17.63;11.25;;;;;;;;;;5069770;28;20478;-67
2023/01/24 09:15:45;;;;;;;19.52;11.63;;;;;;;;;;5072633;28;20032;-67
2023/01/24 09:18:11;;;;;;;17.70;11.27;;;;;;;;;;5074414;28;20420;-67
2023/01/24 09:20:37;;;;;;;15.93;11.02;;;;;;;;;;5065737;28;20119;-67
2023/01/24 09:23:11;;;;;;;19.73;11.32;;;;;;;;;;5032642;28;20125;-67
2023/01/24 09:25:37;;;;;;;17.67;11.85;;;;;;;;;;5033890;28;20488;-68
2023/01/24 09:28:03;;;;;;;18.65;11.25;;;;;;;;;;5033338;28;20038;-67
2023/01/24 09:30:29;;;;;;;16.60;10.30;;;;;;;;;;5057134;28;20487;-67
2023/01/24 09:32:55;;;;;;;17.88;10.80;;;;;;;;;;5062374;28;20051;-68
2023/01/24 09:35:21;;;;;;;16.67;11.02;;;;;;;;;;5064361;28;20037;-67
2023/01/24 09:37:47;;;;;;;18.60;11.02;;;;;;;;;;5053120;28;20040;-67
2023/01/24 09:40:27;;;;;;;18.55;11.15;;;;;;;;;;5057608;28;20037;-67
2023/01/24 09:42:56;;;;;;;17.75;9.90;;;;;;;;;;5062811;28;20506;-67
2023/01/24 09:45:22;;;;;;;15.82;8.82;;;;;;;;;;5061726;28;20052;-67
2023/01/24 09:47:58;;;;;;;16.02;10.65;;;;;;;;;;5059795;28;20401;-67
2023/01/24 09:50:30;;;;;;;17.30;10.02;;;;;;;;;;5057540;28;20047;-67
2023/01/24 09:52:57;;;;;;;17.15;10.93;;;;;;;;;;5063262;28;20047;-67
2023/01/24 09:55:26;;;;;;;18.35;10.80;;;;;;;;;;5072544;28;20446;-68
2023/01/24 09:57:57;;;;;;;17.70;11.25;;;;;;;;;;5068860;28;20037;-68
2023/01/24 10:00:27;;;;;;;18.77;11.73;;;;;;;;;;5064839;28;20138;-68
2023/01/24 10:02:55;;;;;;;19.23;11.63;;;;;;;;;;5060527;28;20040;-68
2023/01/24 10:05:23;;;;;;;17.55;10.80;;;;;;;;;;5052247;28;20037;-68
2023/01/24 10:07:57;;;;;;;18.15;11.02;;;;;;;;;;5058328;28;20044;-68
2023/01/24 10:10:26;;;;;;;19.27;11.57;;;;;;;;;;5066703;28;20553;-68
2023/01/24 10:13:17;;;;;;;17.40;11.05;;;;;;;;;;5054490;28;20060;-67
2023/01/24 10:16:10;;;;;;;18.77;10.75;;;;;;;;;;5064273;28;20548;-67
2023/01/24 10:18:36;;;;;;;17.58;11.45;;;;;;;;;;5063609;28;20036;-67
2023/01/24 10:21:12;;;;;;;18.05;11.10;;;;;;;;;;5056211;28;20068;-68
2023/01/24 10:23:40;;;;;;;18.02;10.73;;;;;;;;;;5062526;28;20449;-67
2023/01/24 10:26:06;;;;;;;18.50;11.13;;;;;;;;;;5058549;28;20474;-67
2023/01/24 10:28:40;;;;;;;17.00;11.02;;;;;;;;;;5047817;28;20048;-68
2023/01/24 10:31:06;;;;;;;18.92;11.65;;;;;;;;;;5048863;28;20119;-67
2023/01/24 10:33:36;;;;;;;18.25;11.15;;;;;;;;;;5052851;28;20132;-67
2023/01/24 10:36:09;;;;;;;17.10;10.27;;;;;;;;;;5064496;28;20076;-68
2023/01/24 10:38:35;;;;;;;19.80;10.38;;;;;;;;;;5063051;28;20040;-68
2023/01/24 10:41:14;;;;;;;18.30;10.32;;;;;;;;;;5059247;28;20029;-68
2023/01/24 10:43:41;;;;;;;16.77;10.05;;;;;;;;;;5049438;28;20033;-68
2023/01/24 10:46:10;;;;;;;20.90;11.50;;;;;;;;;;5070656;28;20039;-68
2023/01/24 10:48:40;;;;;;;16.98;10.43;;;;;;;;;;5071957;28;20037;-68
2023/01/24 10:51:14;;;;;;;17.88;10.35;;;;;;;;;;5057202;28;20115;-67
2023/01/24 10:53:40;;;;;;;17.77;10.57;;;;;;;;;;5047232;28;20513;-67
2023/01/24 10:56:07;;;;;;;19.42;11.32;;;;;;;;;;5055191;28;20116;-67
2023/01/24 10:58:33;;;;;;;19.23;11.77;;;;;;;;;;5058108;28;20194;-68
2023/01/24 11:01:00;;;;;;;17.58;11.15;;;;;;;;;;5071896;28;20493;-68
2023/01/24 11:03:32;;;;;;;19.35;11.70;;;;;;;;;;5059237;28;20446;-68
2023/01/24 11:05:58;;;;;;;19.35;11.43;;;;;;;;;;5058145;28;20044;-67
2023/01/24 11:08:26;;;;;;;20.75;11.38;;;;;;;;;;5057556;28;20032;-67
2023/01/24 11:10:58;;;;;;;17.50;11.35;;;;;;;;;;5047209;28;20045;-68
2023/01/24 11:13:24;;;;;;;18.45;10.88;;;;;;;;;;5054979;28;20481;-67
2023/01/24 11:15:52;;;;;;;15.93;10.02;;;;;;;;;;5062628;28;20043;-68
2023/01/24 11:18:20;;;;;;;18.45;10.63;;;;;;;;;;5062903;28;20040;-67
2023/01/24 11:20:47;;;;;;;18.23;10.82;;;;;;;;;;5065240;28;20395;-67
2023/01/24 11:23:18;;;;;;;16.92;10.60;;;;;;;;;;5058497;28;20045;-68
2023/01/24 11:25:57;;;;;;;20.00;10.90;;;;;;;;;;5050664;28;20037;-68
2023/01/24 11:28:24;;;;;;;15.40;9.70;;;;;;;;;;5063368;28;20383;-68
2023/01/24 11:30:50;;;;;;;17.98;10.13;;;;;;;;;;5071281;28;20106;-67
2023/01/24 11:33:22;;;;;;;16.75;10.13;;;;;;;;;;5070725;28;20041;-67
2023/01/24 11:35:56;;;;;;;17.67;10.93;;;;;;;;;;5061698;28;20450;-67
2023/01/24 11:38:23;;;;;;;16.50;10.30;;;;;;;;;;5062384;28;20456;-68
2023/01/24 11:41:00;;;;;;;16.40;10.65;;;;;;;;;;5066428;28;20491;-67
2023/01/24 11:43:41;;;;;;;16.75;9.75;;;;;;;;;;5061977;28;20086;-68
2023/01/24 11:46:26;;;;;;;17.42;10.57;;;;;;;;;;5071801;28;20046;-67
2023/01/24 11:48:53;;;;;;;16.83;10.95;;;;;;;;;;5070888;28;20489;-67
2023/01/24 11:51:34;;;;;;;15.65;10.48;;;;;;;;;;5052872;28;20522;-68
2023/01/24 11:54:12;;;;;;;17.73;10.60;;;;;;;;;;5059102;28;20058;-68
2023/01/24 11:56:57;;;;;;;19.35;10.70;;;;;;;;;;5058105;28;20044;-68
2023/01/24 11:59:26;;;;;;;16.75;10.73;;;;;;;;;;5056599;28;20044;-67
2023/01/24 12:01:58;;;;;;;18.17;10.68;;;;;;;;;;5047236;28;20048;-68
2023/01/24 12:04:30;;;;;;;15.95;10.27;;;;;;;;;;5046974;28;20048;-68
2023/01/24 12:07:09;;;;;;;17.30;10.00;;;;;;;;;;5070266;28;20472;-68
2023/01/24 12:09:43;;;;;;;17.05;10.70;;;;;;;;;;5058696;28;20044;-67
2023/01/24 12:12:28;;;;;;;16.42;10.27;;;;;;;;;;5049351;28;20041;-68
2023/01/24 12:14:57;;;;;;;15.80;10.38;;;;;;;;;;5057303;28;20139;-68
2023/01/24 12:17:41;;;;;;;15.27;10.88;;;;;;;;;;5050122;28;20045;-67
2023/01/24 12:20:13;;;;;;;14.13;9.52;;;;;;;;;;5048261;28;20083;-67
2023/01/24 12:22:40;;;;;;;18.63;10.70;;;;;;;;;;5047017;28;20487;-68
2023/01/24 12:25:23;;;;;;;17.58;11.18;;;;;;;;;;5043081;28;20037;-68
2023/01/24 12:27:50;;;;;;;15.85;10.00;;;;;;;;;;5047233;28;20110;-68
2023/01/24 12:30:16;;;;;;;17.52;10.63;;;;;;;;;;5047755;28;20502;-68
2023/01/24 12:32:45;;;;;;;16.80;11.02;;;;;;;;;;5047939;28;20561;-68
2023/01/24 12:35:19;;;;;;;20.00;11.60;;;;;;;;;;5057080;28;20041;-68
2023/01/24 12:37:50;;;;;;;18.73;10.70;;;;;;;;;;5051255;28;20052;-68
2023/01/24 12:40:19;;;;;;;16.02;10.23;;;;;;;;;;5054429;28;20041;-68
2023/01/24 12:42:55;;;;;;;19.05;10.35;;;;;;;;;;5034513;28;20414;-68
2023/01/24 12:45:31;;;;;;;15.32;10.90;;;;;;;;;;5062757;28;20509;-68
2023/01/24 12:48:17;;;;;;;19.10;11.90;;;;;;;;;;5051932;28;20076;-68
2023/01/24 12:50:52;;;;;;;16.30;10.80;;;;;;;;;;5006874;28;20051;-68
2023/01/24 12:53:23;;;;;;;16.92;11.05;;;;;;;;;;5044175;28;20045;-67
2023/01/24 12:56:04;;;;;;;17.85;12.65;;;;;;;;;;5050042;28;20045;-68
2023/01/24 12:58:33;;;;;;;18.63;11.32;;;;;;;;;;5053797;28;20045;-67
2023/01/24 13:01:13;;;;;;;17.50;11.25;;;;;;;;;;5052966;28;20040;-67
2023/01/24 13:03:51;;;;;;;17.58;11.38;;;;;;;;;;5061534;28;21630;-68
2023/01/24 13:06:50;;;;;;;16.20;11.23;;;;;;;;;;5059637;28;20553;-68
2023/01/24 13:09:21;;;;;;;18.65;11.13;;;;;;;;;;5007814;28;20048;-68
2023/01/24 13:11:48;;;;;;;17.02;10.80;;;;;;;;;;5057457;28;20041;-67
2023/01/24 13:14:20;;;;;;;18.40;11.50;;;;;;;;;;5051594;28;20055;-68
2023/01/24 13:16:56;;;;;;;17.00;11.00;;;;;;;;;;5056957;28;20054;-67
2023/01/24 13:19:30;;;;;;;18.70;11.27;;;;;;;;;;5059912;28;20049;-68
2023/01/24 13:21:56;;;;;;;17.30;11.05;;;;;;;;;;5045494;28;20120;-68
2023/01/24 13:24:41;;;;;;;17.63;10.98;;;;;;;;;;5067459;28;20082;-68
2023/01/24 13:27:10;;;;;;;15.90;10.32;;;;;;;;;;5043921;28;20033;-67
2023/01/24 13:29:51;;;;;;;17.48;10.93;;;;;;;;;;5050858;28;20044;-68
2023/01/24 13:32:17;;;;;;;18.02;11.27;;;;;;;;;;5060159;28;21037;-68
2023/01/24 13:35:10;;;;;;;17.60;11.35;;;;;;;;;;5053140;28;20079;-68
2023/01/24 13:37:37;;;;;;;17.55;10.55;;;;;;;;;;5006605;28;20139;-68
2023/01/24 13:40:19;;;;;;;17.65;10.75;;;;;;;;;;5052168;28;20037;-68
2023/01/24 13:42:45;;;;;;;17.60;11.13;;;;;;;;;;5051911;28;20167;-67
2023/01/24 13:45:26;;;;;;;17.45;11.05;;;;;;;;;;5054668;28;20037;-68
2023/01/24 13:47:56;;;;;;;17.50;10.80;;;;;;;;;;5063844;28;20048;-67
2023/01/24 13:50:22;;;;;;;16.75;10.55;;;;;;;;;;5051075;28;20495;-67
2023/01/24 13:52:54;;;;;;;17.73;10.13;;;;;;;;;;5047089;28;20522;-67
2023/01/24 13:55:21;;;;;;;18.75;11.38;;;;;;;;;;5054826;28;20506;-67
2023/01/24 13:57:47;;;;;;;15.13;10.73;;;;;;;;;;5069196;28;20045;-67
2023/01/24 14:00:17;;;;;;;17.05;11.40;;;;;;;;;;5052456;28;20041;-67
2023/01/24 14:03:00;;;;;;;18.02;10.93;;;;;;;;;;5051997;28;20041;-67
2023/01/24 14:05:29;;;;;;;16.08;9.70;;;;;;;;;;5045318;28;20072;-67
2023/01/24 14:07:59;;;;;;;17.23;11.13;;;;;;;;;;5062896;28;20049;-67
2023/01/24 14:10:45;;;;;;;18.45;10.98;;;;;;;;;;5053748;28;20036;-67
2023/01/24 14:13:31;;;;;;;17.70;10.98;;;;;;;;;;5032811;28;20052;-67
2023/01/24 14:15:57;;;;;;;15.77;10.77;;;;;;;;;;5054631;28;20052;-67
2023/01/24 14:18:43;;;;;;;20.45;11.50;;;;;;;;;;5058896;28;20041;-67
2023/01/24 14:21:19;;;;;;;16.05;11.07;;;;;;;;;;5047061;28;20036;-67
2023/01/24 14:23:47;;;;;;;16.92;11.18;;;;;;;;;;5049012;28;20033;-67
2023/01/24 14:26:15;;;;;;;18.23;11.27;;;;;;;;;;5059254;28;20036;-67
2023/01/24 14:28:46;;;;;;;17.77;11.57;;;;;;;;;;5055647;28;20099;-67
2023/01/24 14:31:20;;;;;;;18.40;11.65;;;;;;;;;;5061836;28;20032;-67
2023/01/24 14:34:01;;;;;;;18.70;12.20;;;;;;;;;;5045142;28;20041;-67
2023/01/24 14:36:30;;;;;;;18.52;11.25;;;;;;;;;;5047300;28;20099;-67
2023/01/24 14:39:15;;;;;;;18.23;11.70;;;;;;;;;;5050765;28;20029;-67
2023/01/24 14:41:41;;;;;;;18.13;11.48;;;;;;;;;;5051814;28;20128;-67
2023/01/24 14:44:24;;;;;;;19.38;11.88;;;;;;;;;;5072037;28;20406;-67
2023/01/24 14:46:57;;;;;;;18.10;12.02;;;;;;;;;;5068093;28;20120;-67
2023/01/24 14:49:28;;;;;;;18.33;11.85;;;;;;;;;;5039419;28;20099;-67
2023/01/24 14:51:54;;;;;;;20.25;12.50;;;;;;;;;;5048658;28;20806;-67
2023/01/24 14:54:20;;;;;;;17.48;12.45;;;;;;;;;;5053467;28;20393;-67
2023/01/24 14:56:46;;;;;;;19.20;11.98;;;;;;;;;;5048679;28;20375;-67
2023/01/24 14:59:14;;;;;;;18.90;12.13;;;;;;;;;;5054365;28;20509;-67
2023/01/24 15:01:40;;;;;;;17.35;11.63;;;;;;;;;;5039041;28;20098;-67
2023/01/24 15:04:06;;;;;;;16.67;11.23;;;;;;;;;;5052186;28;20090;-67
2023/01/24 15:06:33;;;;;;;17.83;11.20;;;;;;;;;;5047854;28;20029;-67